This is the latest recevied weather packets stored in our database for station/object WI5ARD. If no packets are shown the sender has not sent any weather packets the latest 10 day(s).
| Time | Temp. | Humidity | Pressure | Rain* | Wind** | Luminosity | Snow |
|---|---|---|---|---|---|---|---|
| 1778190336 | 24.44° C | 81% | 1015.3 hPa | 0 mm | - | 225 W/m² | - |
| 1778189723 | 24.44° C | 80% | 1015.2 hPa | 0 mm | - | 251 W/m² | - |
| 1778188221 | 24.44° C | 79% | 1015.1 hPa | 0 mm | - | 404 W/m² | - |
| 1778184032 | 25.56° C | 80% | 1015.3 hPa | 0 mm | - | 283 W/m² | - |
| 1778183720 | 25° C | 80% | 1015.3 hPa | 0 mm | - | 381 W/m² | - |
| 1778176840 | 23.89° C | 86% | 1015.8 hPa | 0 mm | - | 789 W/m² | - |
| 1778176222 | 23.33° C | 86% | 1015.9 hPa | 0 mm | - | 1051 W/m² | - |
| 1778175035 | 22.22° C | 88% | 1015.8 hPa | 0 mm | - | 960 W/m² | - |
| 1778174148 | 21.67° C | 90% | 1016.2 hPa | 0 mm | - | 722 W/m² | - |
| 1778173521 | 21.11° C | 91% | 1016.2 hPa | 0 mm | - | 629 W/m² | - |
| 1778169319 | 18.89° C | 95% | 1016.8 hPa | 0 mm | - | 274 W/m² | - |
| 1778168420 | 18.89° C | 95% | 1016.4 hPa | 0 mm | - | 364 W/m² | - |
| 1778166936 | 18.33° C | 95% | 1016.2 hPa | 0 mm | - | 278 W/m² | - |
| 1778166320 | 18.33° C | 95% | 1016.3 hPa | 0 mm | - | 221 W/m² | - |
| 1778165720 | 18.33° C | 95% | 1016.5 hPa | 0 mm | - | 134 W/m² | - |
| 1778164234 | 18.33° C | 95% | 1016.5 hPa | 0 mm | - | 139 W/m² | - |
| 1778163619 | 18.33° C | 95% | 1016.5 hPa | 0 mm | - | 56 W/m² | - |
| 1778161221 | 18.89° C | 95% | 1016 hPa | 0.76 mm | - | 60 W/m² | - |
| 1778160020 | 19.44° C | 95% | 1015.9 hPa | 0.76 mm | - | 51 W/m² | - |
| 1778158519 | 20.56° C | 95% | 1015.4 hPa | 0.51 mm | - | 139 W/m² | - |
| 1778157319 | 20.56° C | 95% | 1015.3 hPa | 0 mm | - | 42 W/m² | - |
| 1778156419 | 21.11° C | 95% | 1015 hPa | 0 mm | - | 14 W/m² | - |
| 1778153720 | 21.67° C | 95% | 1013.9 hPa | 0.25 mm | - | 0 W/m² | - |
| 1778153432 | 21.67° C | 95% | 1013.7 hPa | 0.25 mm | - | 0 W/m² | - |
| 1778148621 | 23.33° C | 94% | 1012.9 hPa | 0.51 mm | - | 0 W/m² | - |
* Rain latest hour (hover to see other rain measurements)
** Current wind speed in m/s (hover to see current wind gust speed)